Time,TemperatureF,DewpointF,PressureIn,WindDirection,WindDirectionDegrees,WindSpeedMPH,WindSpeedGustMPH,Humidity,HourlyPrecipIn,Conditions,Clouds,dailyrainin,SoftwareType,DateUTC
2013-03-28 00:00:00,47.5,37.6,30.28,West,276,0.0,0.0,68,0.00,,---,0.00,VWS V14.01,2013-03-28 04:00:00,
2013-03-28 00:01:00,53.9,43.6,30.29,ESE,105,0.0,0.0,68,0.00,,---,0.00,VWS V14.01,2013-03-28 04:01:00,
2013-03-28 00:05:00,47.6,37.6,30.28,West,276,0.0,0.0,68,0.00,,---,0.00,VWS V14.01,2013-03-28 04:05:00,
2013-03-28 00:10:00,48.6,38.3,30.28,NW,307,0.0,0.0,68,0.00,,---,0.00,VWS V14.01,2013-03-28 04:10:00,
2013-03-28 00:15:00,48.6,38.5,30.28,WNW,300,2.2,2.2,68,0.00,,---,0.00,VWS V14.01,2013-03-28 04:15:00,
2013-03-28 00:20:00,48.2,38.3,30.28,West,280,0.0,0.0,68,0.00,,---,0.00,VWS V14.01,2013-03-28 04:20:00,
2013-03-28 00:25:00,48.3,38.5,30.28,West,280,0.0,0.0,69,0.00,,---,0.00,VWS V14.01,2013-03-28 04:25:00,
2013-03-28 00:30:00,47.4,37.8,30.28,West,280,0.0,0.0,69,0.00,,---,0.00,VWS V14.01,2013-03-28 04:30:00,
2013-03-28 00:35:00,48.2,38.6,30.28,West,280,0.0,0.0,69,0.00,,---,0.00,VWS V14.01,2013-03-28 04:35:00,
2013-03-28 00:40:00,48.1,38.7,30.28,West,280,0.0,0.0,70,0.00,,---,0.00,VWS V14.01,2013-03-28 04:40:00,
2013-03-28 00:45:00,47.6,38.5,30.27,West,280,0.0,0.0,70,0.00,,---,0.00,VWS V14.01,2013-03-28 04:45:00,
2013-03-28 00:50:00,47.0,37.8,30.27,West,280,0.0,0.0,70,0.00,,---,0.00,VWS V14.01,2013-03-28 04:50:00,
2013-03-28 00:55:00,47.2,38.2,30.27,West,280,0.0,0.0,71,0.00,,---,0.00,VWS V14.01,2013-03-28 04:55:00,
2013-03-28 01:00:00,47.5,38.7,30.27,West,280,0.0,0.0,71,0.00,,---,0.00,VWS V14.01,2013-03-28 05:00:00,
2013-03-28 01:05:00,46.9,38.4,30.27,West,280,0.0,0.0,72,0.00,,---,0.00,VWS V14.01,2013-03-28 05:05:00,
2013-03-28 01:10:00,46.9,38.6,30.27,West,280,0.0,0.0,73,0.00,,---,0.00,VWS V14.01,2013-03-28 05:10:00,
2013-03-28 01:15:00,47.0,38.8,30.27,West,280,0.0,0.0,73,0.00,,---,0.00,VWS V14.01,2013-03-28 05:15:00,
2013-03-28 01:20:00,46.4,38.5,30.27,West,280,0.0,0.0,74,0.00,,---,0.00,VWS V14.01,2013-03-28 05:20:00,
2013-03-28 01:25:00,46.4,38.7,30.27,West,280,0.0,0.0,74,0.00,,---,0.00,VWS V14.01,2013-03-28 05:25:00,
2013-03-28 01:30:00,46.8,39.0,30.27,West,280,0.0,0.0,74,0.00,,---,0.00,VWS V14.01,2013-03-28 05:30:00,
2013-03-28 01:35:00,46.3,38.6,30.27,West,280,0.0,0.0,74,0.00,,---,0.00,VWS V14.01,2013-03-28 05:35:00,
2013-03-28 01:40:00,46.7,39.2,30.27,West,280,0.0,0.0,75,0.00,,---,0.00,VWS V14.01,2013-03-28 05:40:00,
2013-03-28 01:45:00,46.4,39.0,30.27,West,280,0.0,0.0,75,0.00,,---,0.00,VWS V14.01,2013-03-28 05:45:00,
2013-03-28 01:50:00,45.9,38.7,30.27,West,280,0.0,0.0,76,0.00,,---,0.00,VWS V14.01,2013-03-28 05:50:00,
2013-03-28 01:55:00,45.4,38.4,30.27,West,280,0.0,0.0,76,0.00,,---,0.00,VWS V14.01,2013-03-28 05:55:00,
2013-03-28 02:00:00,46.2,39.3,30.27,West,280,0.0,0.0,77,0.00,,---,0.00,VWS V14.01,2013-03-28 06:00:00,
2013-03-28 02:05:00,46.1,39.3,30.27,West,280,0.0,0.0,77,0.00,,---,0.00,VWS V14.01,2013-03-28 06:05:00,
2013-03-28 02:10:00,46.1,39.4,30.27,West,280,0.0,0.0,77,0.00,,---,0.00,VWS V14.01,2013-03-28 06:10:00,
2013-03-28 02:15:00,46.0,39.4,30.27,West,280,0.0,0.0,78,0.00,,---,0.00,VWS V14.01,2013-03-28 06:15:00,
2013-03-28 02:20:00,45.5,39.0,30.26,West,280,0.0,0.0,78,0.00,,---,0.00,VWS V14.01,2013-03-28 06:20:00,
2013-03-28 02:25:00,45.2,38.8,30.27,West,280,0.0,0.0,78,0.00,,---,0.00,VWS V14.01,2013-03-28 06:25:00,
2013-03-28 02:30:00,45.5,39.2,30.26,West,280,0.0,0.0,78,0.00,,---,0.00,VWS V14.01,2013-03-28 06:30:00,
2013-03-28 02:35:00,45.6,39.5,30.26,West,280,0.0,0.0,79,0.00,,---,0.00,VWS V14.01,2013-03-28 06:35:00,
2013-03-28 02:40:00,45.0,38.9,30.26,West,280,0.0,0.0,79,0.00,,---,0.00,VWS V14.01,2013-03-28 06:40:00,
2013-03-28 02:45:00,44.8,38.9,30.26,West,280,0.0,0.0,80,0.00,,---,0.00,VWS V14.01,2013-03-28 06:45:00,
2013-03-28 02:50:00,45.2,39.6,30.26,West,280,0.0,0.0,81,0.00,,---,0.00,VWS V14.01,2013-03-28 06:50:00,
2013-03-28 02:55:00,44.9,39.5,30.26,West,280,0.0,0.0,81,0.00,,---,0.00,VWS V14.01,2013-03-28 06:55:00,
2013-03-28 03:00:00,44.6,39.1,30.26,West,280,0.0,0.0,81,0.00,,---,0.00,VWS V14.01,2013-03-28 07:00:00,
2013-03-28 03:05:00,44.9,39.5,30.26,West,280,0.0,0.0,81,0.00,,---,0.00,VWS V14.01,2013-03-28 07:05:00,
2013-03-28 03:10:00,44.4,39.2,30.25,West,280,0.0,0.0,82,0.00,,---,0.00,VWS V14.01,2013-03-28 07:10:00,
2013-03-28 03:15:00,45.0,40.0,30.25,West,264,0.0,0.0,82,0.00,,---,0.00,VWS V14.01,2013-03-28 07:15:00,
2013-03-28 03:20:00,44.5,39.4,30.25,WNW,287,1.4,2.0,82,0.00,,---,0.00,VWS V14.01,2013-03-28 07:20:00,
2013-03-28 03:25:00,44.2,39.2,30.25,West,273,0.0,0.0,82,0.00,,---,0.00,VWS V14.01,2013-03-28 07:25:00,
2013-03-28 03:30:00,43.8,39.0,30.25,WNW,287,1.9,2.1,83,0.00,,---,0.00,VWS V14.01,2013-03-28 07:30:00,
2013-03-28 03:35:00,44.6,40.0,30.25,WNW,285,2.0,2.0,84,0.00,,---,0.00,VWS V14.01,2013-03-28 07:35:00,
2013-03-28 03:40:00,44.7,39.8,30.25,WSW,257,0.0,0.0,83,0.00,,---,0.00,VWS V14.01,2013-03-28 07:40:00,
2013-03-28 03:45:00,44.2,39.2,30.25,West,263,0.0,0.0,83,0.00,,---,0.00,VWS V14.01,2013-03-28 07:45:00,
2013-03-28 03:50:00,43.7,38.9,30.25,West,263,0.0,0.0,83,0.00,,---,0.00,VWS V14.01,2013-03-28 07:50:00,
2013-03-28 03:55:00,44.0,39.3,30.25,West,263,0.5,0.5,84,0.00,,---,0.00,VWS V14.01,2013-03-28 07:55:00,
2013-03-28 04:00:00,44.0,39.4,30.25,WNW,283,2.0,2.1,84,0.00,,---,0.00,VWS V14.01,2013-03-28 08:00:00,
2013-03-28 04:05:00,43.5,38.9,30.24,North,353,1.4,1.4,84,0.00,,---,0.00,VWS V14.01,2013-03-28 08:05:00,
2013-03-28 04:10:00,43.6,39.1,30.24,North,349,1.5,1.5,84,0.00,,---,0.00,VWS V14.01,2013-03-28 08:10:00,
2013-03-28 04:15:00,43.5,39.2,30.24,NNW,343,2.1,2.3,85,0.00,,---,0.00,VWS V14.01,2013-03-28 08:15:00,
2013-03-28 04:20:00,42.6,38.3,30.25,NNW,345,1.0,1.8,85,0.00,,---,0.00,VWS V14.01,2013-03-28 08:20:00,
2013-03-28 04:25:00,42.5,38.3,30.24,NNW,345,2.8,2.8,85,0.00,,---,0.00,VWS V14.01,2013-03-28 08:25:00,
2013-03-28 04:30:00,42.8,38.8,30.24,NW,319,3.0,3.6,86,0.00,,---,0.00,VWS V14.01,2013-03-28 08:30:00,
2013-03-28 04:35:00,42.5,38.8,30.24,NW,323,1.7,1.9,87,0.00,,---,0.00,VWS V14.01,2013-03-28 08:35:00,
2013-03-28 04:40:00,43.2,39.4,30.25,NNW,330,1.2,1.9,86,0.00,,---,0.00,VWS V14.01,2013-03-28 08:40:00,
2013-03-28 04:45:00,42.9,39.1,30.24,NW,319,2.9,2.9,86,0.00,,---,0.00,VWS V14.01,2013-03-28 08:45:00,
2013-03-28 04:50:00,42.5,38.8,30.24,NNW,333,3.1,3.5,87,0.00,,---,0.00,VWS V14.01,2013-03-28 08:50:00,
2013-03-28 04:55:00,43.0,39.6,30.25,NNW,330,1.4,1.7,88,0.00,,---,0.00,VWS V14.01,2013-03-28 08:55:00,
2013-03-28 05:00:00,42.7,39.1,30.24,NW,323,0.9,1.7,87,0.00,,---,0.00,VWS V14.01,2013-03-28 09:00:00,
2013-03-28 05:05:00,42.2,38.6,30.24,NNW,343,2.3,2.4,87,0.00,,---,0.00,VWS V14.01,2013-03-28 09:05:00,
2013-03-28 05:10:00,42.7,39.2,30.24,NNW,347,2.1,2.2,87,0.00,,---,0.00,VWS V14.01,2013-03-28 09:10:00,
2013-03-28 05:15:00,42.0,38.6,30.24,NNW,345,1.8,1.9,88,0.00,,---,0.00,VWS V14.01,2013-03-28 09:15:00,
2013-03-28 05:20:00,41.8,38.4,30.25,NNW,335,0.0,0.0,88,0.00,,---,0.00,VWS V14.01,2013-03-28 09:20:00,
2013-03-28 05:25:00,42.1,38.8,30.25,NNW,335,0.0,0.0,88,0.00,,---,0.00,VWS V14.01,2013-03-28 09:25:00,
2013-03-28 05:30:00,42.2,39.0,30.25,NNW,335,0.0,0.0,88,0.00,,---,0.00,VWS V14.01,2013-03-28 09:30:00,
2013-03-28 05:35:00,41.4,38.2,30.25,NNW,335,0.0,0.0,88,0.00,,---,0.00,VWS V14.01,2013-03-28 09:35:00,
2013-03-28 05:40:00,42.3,39.0,30.25,NNW,335,0.0,0.0,88,0.00,,---,0.00,VWS V14.01,2013-03-28 09:40:00,
2013-03-28 05:45:00,41.2,38.0,30.25,NNW,335,0.0,0.0,88,0.00,,---,0.00,VWS V14.01,2013-03-28 09:45:00,
2013-03-28 05:50:00,40.4,37.1,30.25,NNW,335,0.0,0.0,88,0.00,,---,0.00,VWS V14.01,2013-03-28 09:50:00,
2013-03-28 05:55:00,41.2,38.0,30.25,NNW,335,0.0,0.0,88,0.00,,---,0.00,VWS V14.01,2013-03-28 09:55:00,
2013-03-28 06:00:00,40.9,37.8,30.26,NNW,335,0.0,0.0,89,0.00,,---,0.00,VWS V14.01,2013-03-28 10:00:00,
2013-03-28 06:05:00,40.5,37.5,30.26,NNW,335,0.0,0.0,89,0.00,,---,0.00,VWS V14.01,2013-03-28 10:05:00,
2013-03-28 06:10:00,40.0,37.1,30.26,NNW,335,0.0,0.0,89,0.00,,---,0.00,VWS V14.01,2013-03-28 10:10:00,
2013-03-28 06:15:00,40.3,37.5,30.26,NNW,335,0.0,0.0,90,0.00,,---,0.00,VWS V14.01,2013-03-28 10:15:00,
2013-03-28 06:20:00,40.6,37.8,30.26,NNW,335,0.0,0.0,90,0.00,,---,0.00,VWS V14.01,2013-03-28 10:20:00,
2013-03-28 06:25:00,40.8,38.1,30.26,NNW,335,0.0,0.0,90,0.00,,---,0.00,VWS V14.01,2013-03-28 10:25:00,
2013-03-28 06:30:00,40.1,37.5,30.26,NNW,335,0.0,0.0,90,0.00,,---,0.00,VWS V14.01,2013-03-28 10:30:00,
2013-03-28 06:35:00,40.3,37.7,30.26,NNW,335,0.0,0.0,90,0.00,,---,0.00,VWS V14.01,2013-03-28 10:35:00,
2013-03-28 06:40:00,39.7,37.2,30.26,NNW,335,0.0,0.0,90,0.00,,---,0.00,VWS V14.01,2013-03-28 10:40:00,
2013-03-28 06:45:00,40.2,37.6,30.26,NNW,335,0.0,0.0,90,0.00,,---,0.00,VWS V14.01,2013-03-28 10:45:00,
2013-03-28 06:50:00,40.3,37.7,30.26,NNW,335,0.0,0.0,90,0.00,,---,0.00,VWS V14.01,2013-03-28 10:50:00,
2013-03-28 06:55:00,40.1,37.5,30.26,NNW,335,0.0,0.0,90,0.00,,---,0.00,VWS V14.01,2013-03-28 10:55:00,
2013-03-28 07:00:00,40.2,37.8,30.26,NNW,335,0.0,0.0,91,0.00,,---,0.00,VWS V14.01,2013-03-28 11:00:00,
2013-03-28 07:05:00,39.9,37.7,30.26,NNW,335,0.0,0.0,92,0.00,,---,0.00,VWS V14.01,2013-03-28 11:05:00,
2013-03-28 07:10:00,40.0,37.9,30.26,NNW,335,0.0,0.0,92,0.00,,---,0.00,VWS V14.01,2013-03-28 11:10:00,
2013-03-28 07:15:00,40.5,38.2,30.26,NNW,335,0.0,0.0,92,0.00,,---,0.00,VWS V14.01,2013-03-28 11:15:00,
2013-03-28 07:20:00,40.5,38.2,30.26,NNW,335,0.0,0.0,91,0.00,,---,0.00,VWS V14.01,2013-03-28 11:20:00,
2013-03-28 07:25:00,39.7,37.4,30.26,NNW,335,0.0,0.0,91,0.00,,---,0.00,VWS V14.01,2013-03-28 11:25:00,
2013-03-28 07:30:00,40.0,37.7,30.26,NNW,335,0.0,0.0,91,0.00,,---,0.00,VWS V14.01,2013-03-28 11:30:00,
2013-03-28 07:35:00,39.0,36.8,30.27,NNW,335,0.0,0.0,92,0.00,,---,0.00,VWS V14.01,2013-03-28 11:35:00,
2013-03-28 07:40:00,39.8,37.6,30.27,NNW,335,0.0,0.0,92,0.00,,---,0.00,VWS V14.01,2013-03-28 11:40:00,
2013-03-28 07:45:00,39.6,37.4,30.27,NNW,335,0.0,0.0,92,0.00,,---,0.00,VWS V14.01,2013-03-28 11:45:00,
2013-03-28 07:50:00,40.0,37.9,30.27,NNW,335,0.0,0.0,92,0.00,,---,0.00,VWS V14.01,2013-03-28 11:50:00,
2013-03-28 07:55:00,40.2,38.1,30.27,NNW,335,0.0,0.0,92,0.00,,---,0.00,VWS V14.01,2013-03-28 11:55:00,
2013-03-28 08:00:00,40.4,38.3,30.27,NNW,335,0.0,0.0,92,0.00,,---,0.00,VWS V14.01,2013-03-28 12:00:00,
2013-03-28 08:05:00,39.9,37.8,30.27,NNW,335,0.0,0.0,92,0.00,,---,0.00,VWS V14.01,2013-03-28 12:05:00,
2013-03-28 08:10:00,40.4,38.3,30.27,NNW,335,0.0,0.0,92,0.00,,---,0.00,VWS V14.01,2013-03-28 12:10:00,
2013-03-28 08:15:00,41.0,38.8,30.27,NNW,335,0.0,0.0,92,0.00,,---,0.00,VWS V14.01,2013-03-28 12:15:00,
2013-03-28 08:20:00,40.8,38.6,30.27,NNW,335,0.0,0.0,92,0.00,,---,0.00,VWS V14.01,2013-03-28 12:20:00,
2013-03-28 08:25:00,41.3,39.0,30.27,WNW,297,2.7,3.2,92,0.00,,---,0.00,VWS V14.01,2013-03-28 12:25:00,
2013-03-28 08:30:00,42.4,39.7,30.27,WNW,298,2.1,2.9,90,0.00,,---,0.00,VWS V14.01,2013-03-28 12:30:00,
2013-03-28 08:35:00,43.2,39.8,30.27,North,354,2.5,3.2,88,0.00,,---,0.00,VWS V14.01,2013-03-28 12:35:00,
2013-03-28 08:40:00,44.2,40.0,30.27,NW,316,0.0,0.0,85,0.00,,---,0.00,VWS V14.01,2013-03-28 12:40:00,
2013-03-28 08:45:00,44.8,39.8,30.27,North,350,0.0,0.0,82,0.00,,---,0.00,VWS V14.01,2013-03-28 12:45:00,
2013-03-28 08:50:00,45.1,39.5,30.27,North,350,0.0,0.0,81,0.00,,---,0.00,VWS V14.01,2013-03-28 12:50:00,
2013-03-28 08:55:00,46.0,39.5,30.28,North,359,3.7,4.2,78,0.00,,---,0.00,VWS V14.01,2013-03-28 12:55:00,
2013-03-28 09:00:00,47.3,40.2,30.28,NNE,22,3.6,4.0,76,0.00,,---,0.00,VWS V14.01,2013-03-28 13:00:00,
2013-03-28 09:05:00,47.3,39.5,30.28,NNE,17,2.0,3.2,74,0.00,,---,0.00,VWS V14.01,2013-03-28 13:05:00,
2013-03-28 09:10:00,48.5,40.1,30.28,North,359,3.0,4.0,72,0.00,,---,0.00,VWS V14.01,2013-03-28 13:10:00,
2013-03-28 09:15:00,49.2,39.8,30.28,North,357,4.0,4.8,70,0.00,,---,0.00,VWS V14.01,2013-03-28 13:15:00,
2013-03-28 09:20:00,50.0,39.8,30.28,NE,35,0.0,0.0,68,0.00,,---,0.00,VWS V14.01,2013-03-28 13:20:00,
2013-03-28 09:25:00,50.2,38.5,30.28,North,3,5.3,6.8,64,0.00,,---,0.00,VWS V14.01,2013-03-28 13:25:00,
2013-03-28 09:30:00,51.6,39.1,30.28,NE,35,3.8,3.8,62,0.00,,---,0.00,VWS V14.01,2013-03-28 13:30:00,
2013-03-28 09:35:00,51.6,37.7,30.29,NNW,343,5.1,5.1,59,0.00,,---,0.00,VWS V14.01,2013-03-28 13:35:00,
2013-03-28 09:40:00,53.0,37.4,30.29,NNW,342,4.2,4.2,55,0.00,,---,0.00,VWS V14.01,2013-03-28 13:40:00,
2013-03-28 09:44:00,53.5,36.7,30.29,NNW,339,4.7,6.0,53,0.00,,---,0.00,VWS V14.01,2013-03-28 13:44:00,
2013-03-28 09:49:00,53.7,36.4,30.29,NW,326,5.2,5.5,52,0.00,,---,0.00,VWS V14.01,2013-03-28 13:49:00,
2013-03-28 09:54:00,54.4,35.4,30.29,North,350,4.9,5.2,48,0.00,,---,0.00,VWS V14.01,2013-03-28 13:54:00,
2013-03-28 09:59:00,55.0,35.5,30.29,North,6,5.6,5.6,48,0.00,,---,0.00,VWS V14.01,2013-03-28 13:59:00,
2013-03-28 10:04:00,55.3,35.2,30.29,NNE,25,5.7,5.7,46,0.00,,---,0.00,VWS V14.01,2013-03-28 14:04:00,
2013-03-28 10:09:00,56.0,34.1,30.29,NNW,346,4.5,5.2,43,0.00,,---,0.00,VWS V14.01,2013-03-28 14:09:00,
2013-03-28 10:14:00,56.5,33.6,30.29,North,6,6.8,7.3,42,0.00,,---,0.00,VWS V14.01,2013-03-28 14:14:00,
2013-03-28 10:19:00,56.8,33.0,30.29,North,4,6.2,6.9,40,0.00,,---,0.00,VWS V14.01,2013-03-28 14:19:00,
2013-03-28 10:24:00,57.1,33.0,30.29,NNE,24,2.3,2.3,40,0.00,,---,0.00,VWS V14.01,2013-03-28 14:24:00,
2013-03-28 10:29:00,57.9,32.5,30.29,ENE,70,1.5,1.8,38,0.00,,---,0.00,VWS V14.01,2013-03-28 14:29:00,
2013-03-28 10:34:00,58.2,31.3,30.29,North,353,6.9,7.4,36,0.00,,---,0.00,VWS V14.01,2013-03-28 14:34:00,
2013-03-28 10:39:00,58.5,31.5,30.29,North,10,6.7,7.6,36,0.00,,---,0.00,VWS V14.01,2013-03-28 14:39:00,
2013-03-28 10:44:00,58.8,30.5,30.30,NNW,335,8.0,8.1,34,0.00,,---,0.00,VWS V14.01,2013-03-28 14:44:00,
2013-03-28 10:49:00,58.3,30.6,30.29,NNW,330,10.3,11.6,35,0.00,,---,0.00,VWS V14.01,2013-03-28 14:49:00,
2013-03-28 10:54:00,59.3,30.7,30.30,North,354,8.4,8.5,34,0.00,,---,0.00,VWS V14.01,2013-03-28 14:54:00,
2013-03-28 10:59:00,59.1,30.3,30.30,North,359,8.8,8.8,33,0.00,,---,0.00,VWS V14.01,2013-03-28 14:59:00,
2013-03-28 11:04:00,59.4,30.4,30.29,North,359,6.6,6.8,33,0.00,,---,0.00,VWS V14.01,2013-03-28 15:04:00,
2013-03-28 11:09:00,60.2,30.6,30.29,ENE,68,4.6,5.5,32,0.00,,---,0.00,VWS V14.01,2013-03-28 15:09:00,
2013-03-28 11:14:00,60.9,30.2,30.29,NNE,15,6.5,10.8,31,0.00,,---,0.00,VWS V14.01,2013-03-28 15:14:00,
2013-03-28 11:19:00,61.2,31.9,30.29,North,1,5.6,6.4,33,0.00,,---,0.00,VWS V14.01,2013-03-28 15:19:00,
2013-03-28 11:24:00,61.6,30.0,30.29,NNE,21,8.9,12.4,30,0.00,,---,0.00,VWS V14.01,2013-03-28 15:24:00,
2013-03-28 11:29:00,60.4,29.1,30.28,NNE,20,8.6,12.6,30,0.00,,---,0.00,VWS V14.01,2013-03-28 15:29:00,
2013-03-28 11:34:00,60.5,29.1,30.29,NW,309,8.1,10.7,30,0.00,,---,0.00,VWS V14.01,2013-03-28 15:34:00,
2013-03-28 11:39:00,61.4,29.8,30.29,NNW,330,4.1,9.9,30,0.00,,---,0.00,VWS V14.01,2013-03-28 15:39:00,
2013-03-28 11:44:00,61.7,29.8,30.28,WNW,302,2.9,9.3,30,0.00,,---,0.00,VWS V14.01,2013-03-28 15:44:00,
2013-03-28 11:49:00,61.9,30.7,30.28,NNE,17,8.3,10.3,31,0.00,,---,0.00,VWS V14.01,2013-03-28 15:49:00,
2013-03-28 11:54:00,61.6,30.6,30.28,NNE,13,2.4,7.5,31,0.00,,---,0.00,VWS V14.01,2013-03-28 15:54:00,
2013-03-28 11:59:00,62.7,30.8,30.28,NW,314,5.0,6.6,30,0.00,,---,0.00,VWS V14.01,2013-03-28 15:59:00,
2013-03-28 12:04:00,62.1,30.3,30.28,NNW,342,8.0,10.0,30,0.00,,---,0.00,VWS V14.01,2013-03-28 16:04:00,
2013-03-28 12:09:00,63.4,30.9,30.28,NNW,346,7.0,9.6,29,0.00,,---,0.00,VWS V14.01,2013-03-28 16:09:00,
2013-03-28 12:14:00,63.6,30.3,30.28,NNE,24,5.5,6.6,28,0.00,,---,0.00,VWS V14.01,2013-03-28 16:14:00,
2013-03-28 12:19:00,63.5,30.3,30.28,WSW,249,0.0,2.1,28,0.00,,---,0.00,VWS V14.01,2013-03-28 16:19:00,
2013-03-28 12:24:00,64.1,28.8,30.28,NNW,338,4.8,10.0,26,0.00,,---,0.00,VWS V14.01,2013-03-28 16:24:00,
2013-03-28 12:29:00,64.1,29.6,30.28,NNE,14,1.2,7.5,27,0.00,,---,0.00,VWS V14.01,2013-03-28 16:29:00,
2013-03-28 12:34:00,65.8,29.1,30.27,NNW,333,9.5,9.9,25,0.00,,---,0.00,VWS V14.01,2013-03-28 16:34:00,
2013-03-28 12:39:00,64.6,29.1,30.27,WNW,294,2.5,6.8,26,0.00,,---,0.00,VWS V14.01,2013-03-28 16:39:00,
2013-03-28 12:44:00,64.2,28.2,30.27,North,350,0.0,3.4,26,0.00,,---,0.00,VWS V14.01,2013-03-28 16:44:00,
2013-03-28 12:49:00,64.4,29.3,30.27,SW,222,2.9,2.9,26,0.00,,---,0.00,VWS V14.01,2013-03-28 16:49:00,
2013-03-28 12:54:00,64.3,30.0,30.26,ENE,76,0.0,0.0,27,0.00,,---,0.00,VWS V14.01,2013-03-28 16:54:00,
2013-03-28 12:59:00,66.4,30.4,30.26,North,10,5.6,7.7,26,0.00,,---,0.00,VWS V14.01,2013-03-28 16:59:00,
2013-03-28 13:04:00,66.1,28.6,30.26,NE,42,0.8,4.2,24,0.00,,---,0.00,VWS V14.01,2013-03-28 17:04:00,
2013-03-28 13:09:00,66.2,29.3,30.26,ENE,68,0.0,1.4,25,0.00,,---,0.00,VWS V14.01,2013-03-28 17:09:00,
2013-03-28 13:14:00,67.2,29.4,30.26,NNE,14,1.0,4.8,24,0.00,,---,0.00,VWS V14.01,2013-03-28 17:14:00,
2013-03-28 13:19:00,65.7,28.9,30.26,NNE,27,2.1,2.1,25,0.00,,---,0.00,VWS V14.01,2013-03-28 17:19:00,
2013-03-28 13:24:00,67.5,29.8,30.26,South,176,4.5,5.1,24,0.00,,---,0.00,VWS V14.01,2013-03-28 17:24:00,
2013-03-28 13:29:00,68.2,28.3,30.25,WSW,243,3.5,4.3,22,0.00,,---,0.00,VWS V14.01,2013-03-28 17:29:00,
2013-03-28 13:34:00,67.1,25.1,30.25,West,278,7.0,7.6,20,0.00,,---,0.00,VWS V14.01,2013-03-28 17:34:00,
2013-03-28 13:39:00,68.0,27.2,30.25,NNE,15,10.8,10.9,22,0.00,,---,0.00,VWS V14.01,2013-03-28 17:39:00,
2013-03-28 13:44:00,67.9,27.1,30.25,NNW,330,3.2,6.6,22,0.00,,---,0.00,VWS V14.01,2013-03-28 17:44:00,
2013-03-28 13:49:00,68.3,27.6,30.24,SSE,148,0.0,0.0,22,0.00,,---,0.00,VWS V14.01,2013-03-28 17:49:00,
2013-03-28 13:54:00,69.5,28.6,30.24,SSE,148,0.0,0.0,22,0.00,,---,0.00,VWS V14.01,2013-03-28 17:54:00,
2013-03-28 13:59:00,70.2,27.8,30.24,NNE,14,3.1,5.3,20,0.00,,---,0.00,VWS V14.01,2013-03-28 17:59:00,
2013-03-28 14:04:00,70.5,27.2,30.24,NE,53,2.3,3.2,20,0.00,,---,0.00,VWS V14.01,2013-03-28 18:04:00,
2013-03-28 14:09:00,69.5,26.1,30.23,NNW,332,6.2,6.8,20,0.00,,---,0.00,VWS V14.01,2013-03-28 18:09:00,
2013-03-28 14:14:00,70.2,27.3,30.23,West,266,1.7,3.6,20,0.00,,---,0.00,VWS V14.01,2013-03-28 18:14:00,
2013-03-28 14:19:00,69.8,27.9,30.23,North,3,5.2,7.5,21,0.00,,---,0.00,VWS V14.01,2013-03-28 18:19:00,
2013-03-28 14:24:00,69.4,27.7,30.23,WNW,302,1.4,4.6,21,0.00,,---,0.00,VWS V14.01,2013-03-28 18:24:00,
2013-03-28 14:29:00,68.2,28.0,30.23,NW,304,2.4,2.6,22,0.00,,---,0.00,VWS V14.01,2013-03-28 18:29:00,
2013-03-28 14:34:00,69.3,27.8,30.23,NNW,332,3.4,4.7,21,0.00,,---,0.00,VWS V14.01,2013-03-28 18:34:00,
2013-03-28 14:39:00,69.9,27.3,30.22,West,264,4.7,9.7,20,0.00,,---,0.00,VWS V14.01,2013-03-28 18:39:00,
2013-03-28 14:44:00,68.9,27.6,30.22,WSW,256,1.4,3.6,21,0.00,,---,0.00,VWS V14.01,2013-03-28 18:44:00,
2013-03-28 14:49:00,69.7,28.0,30.22,SSW,212,4.3,7.7,21,0.00,,---,0.00,VWS V14.01,2013-03-28 18:49:00,
2013-03-28 14:54:00,70.4,29.0,30.21,North,1,5.8,5.8,21,0.00,,---,0.00,VWS V14.01,2013-03-28 18:54:00,
2013-03-28 14:59:00,70.1,26.1,30.22,West,264,2.2,4.1,19,0.00,,---,0.00,VWS V14.01,2013-03-28 18:59:00,
2013-03-28 15:04:00,70.3,29.1,30.21,SE,127,6.7,7.5,22,0.00,,---,0.00,VWS V14.01,2013-03-28 19:04:00,
2013-03-28 15:09:00,70.0,27.6,30.21,SSW,197,5.0,5.0,20,0.00,,---,0.00,VWS V14.01,2013-03-28 19:09:00,
2013-03-28 15:14:00,69.5,28.1,30.21,SSE,163,4.3,5.8,21,0.00,,---,0.00,VWS V14.01,2013-03-28 19:14:00,
2013-03-28 15:19:00,69.4,27.9,30.20,SSE,165,2.5,6.3,21,0.00,,---,0.00,VWS V14.01,2013-03-28 19:19:00,
2013-03-28 15:24:00,70.2,27.5,30.20,SE,146,0.0,0.0,20,0.00,,---,0.00,VWS V14.01,2013-03-28 19:24:00,
2013-03-28 15:29:00,71.6,27.3,30.20,WNW,301,1.7,2.8,19,0.00,,---,0.00,VWS V14.01,2013-03-28 19:29:00,
2013-03-28 15:34:00,72.0,26.5,30.20,NNW,338,3.7,5.6,18,0.00,,---,0.00,VWS V14.01,2013-03-28 19:34:00,
2013-03-28 15:39:00,71.0,27.0,30.20,NE,46,1.6,3.2,19,0.00,,---,0.00,VWS V14.01,2013-03-28 19:39:00,
2013-03-28 15:44:00,71.3,27.6,30.20,West,263,4.3,5.3,20,0.00,,---,0.00,VWS V14.01,2013-03-28 19:44:00,
2013-03-28 15:49:00,70.3,27.0,30.19,WSW,240,2.0,2.9,20,0.00,,---,0.00,VWS V14.01,2013-03-28 19:49:00,
2013-03-28 15:54:00,71.2,27.4,30.19,WSW,253,1.6,2.4,19,0.00,,---,0.00,VWS V14.01,2013-03-28 19:54:00,
2013-03-28 15:59:00,71.6,27.2,30.19,NW,315,2.1,7.6,19,0.00,,---,0.00,VWS V14.01,2013-03-28 19:59:00,
2013-03-28 16:04:00,71.5,26.6,30.18,NW,318,2.4,5.2,19,0.00,,---,0.00,VWS V14.01,2013-03-28 20:04:00,
2013-03-28 16:09:00,70.5,26.4,30.18,North,359,4.7,7.6,19,0.00,,---,0.00,VWS V14.01,2013-03-28 20:09:00,
2013-03-28 16:14:00,71.4,26.9,30.18,North,8,0.7,4.8,19,0.00,,---,0.00,VWS V14.01,2013-03-28 20:14:00,
2013-03-28 16:19:00,71.4,27.2,30.18,SE,146,0.0,0.0,19,0.00,,---,0.00,VWS V14.01,2013-03-28 20:19:00,
2013-03-28 16:24:00,71.5,27.1,30.18,South,187,2.6,4.9,19,0.00,,---,0.00,VWS V14.01,2013-03-28 20:24:00,
2013-03-28 16:29:00,70.2,26.8,30.18,West,260,6.3,8.0,20,0.00,,---,0.00,VWS V14.01,2013-03-28 20:29:00,
2013-03-28 16:34:00,70.2,26.2,30.18,North,356,4.2,4.2,19,0.00,,---,0.00,VWS V14.01,2013-03-28 20:34:00,
2013-03-28 16:39:00,71.5,27.2,30.17,North,354,2.8,3.0,19,0.00,,---,0.00,VWS V14.01,2013-03-28 20:39:00,
2013-03-28 16:44:00,71.5,26.7,30.18,North,354,1.7,5.3,19,0.00,,---,0.00,VWS V14.01,2013-03-28 20:44:00,
2013-03-28 16:49:00,71.2,26.7,30.18,SSW,194,2.9,6.4,19,0.00,,---,0.00,VWS V14.01,2013-03-28 20:49:00,
2013-03-28 16:54:00,71.5,28.6,30.18,SSE,149,1.7,1.7,20,0.00,,---,0.00,VWS V14.01,2013-03-28 20:54:00,
2013-03-28 16:59:00,71.4,27.0,30.18,SSE,167,0.9,1.9,19,0.00,,---,0.00,VWS V14.01,2013-03-28 20:59:00,
2013-03-28 17:04:00,72.3,27.5,30.18,SSE,165,1.6,4.7,19,0.00,,---,0.00,VWS V14.01,2013-03-28 21:04:00,
2013-03-28 17:09:00,72.4,26.8,30.18,SW,231,4.0,4.0,18,0.00,,---,0.00,VWS V14.01,2013-03-28 21:09:00,
2013-03-28 17:14:00,72.0,26.4,30.18,WSW,245,3.2,4.6,18,0.00,,---,0.00,VWS V14.01,2013-03-28 21:14:00,
2013-03-28 17:19:00,71.4,27.7,30.18,SSE,163,0.7,2.2,20,0.00,,---,0.00,VWS V14.01,2013-03-28 21:19:00,
2013-03-28 17:24:00,71.6,27.3,30.18,SSW,202,5.7,7.7,19,0.00,,---,0.00,VWS V14.01,2013-03-28 21:24:00,
2013-03-28 17:29:00,71.5,27.2,30.18,SE,134,3.5,5.3,19,0.00,,---,0.00,VWS V14.01,2013-03-28 21:29:00,
2013-03-28 17:34:00,71.9,27.6,30.18,ESE,118,0.0,0.0,19,0.00,,---,0.00,VWS V14.01,2013-03-28 21:34:00,
2013-03-28 17:39:00,72.6,28.5,30.18,SSE,153,3.7,4.5,19,0.00,,---,0.00,VWS V14.01,2013-03-28 21:39:00,
2013-03-28 17:44:00,72.3,27.2,30.18,SE,132,1.1,3.5,19,0.00,,---,0.00,VWS V14.01,2013-03-28 21:44:00,
2013-03-28 17:49:00,71.6,28.7,30.18,South,191,3.3,3.4,20,0.00,,---,0.00,VWS V14.01,2013-03-28 21:49:00,
2013-03-28 17:54:00,71.5,27.5,30.18,SSE,155,3.4,5.9,19,0.00,,---,0.00,VWS V14.01,2013-03-28 21:54:00,
2013-03-28 17:59:00,71.2,27.2,30.19,SE,145,4.2,4.2,19,0.00,,---,0.00,VWS V14.01,2013-03-28 21:59:00,
2013-03-28 18:04:00,71.7,27.9,30.19,East,91,0.0,0.0,20,0.00,,---,0.00,VWS V14.01,2013-03-28 22:04:00,
2013-03-28 18:09:00,71.9,27.7,30.19,SSE,156,3.6,7.9,19,0.00,,---,0.00,VWS V14.01,2013-03-28 22:09:00,
2013-03-28 18:14:00,72.0,28.4,30.19,SSE,153,1.1,4.2,20,0.00,,---,0.00,VWS V14.01,2013-03-28 22:14:00,
2013-03-28 18:19:00,71.3,28.0,30.19,SSW,210,3.3,4.7,20,0.00,,---,0.00,VWS V14.01,2013-03-28 22:19:00,
2013-03-28 18:24:00,71.3,27.7,30.19,SSW,200,1.7,6.0,20,0.00,,---,0.00,VWS V14.01,2013-03-28 22:24:00,
2013-03-28 18:29:00,71.3,28.2,30.19,SSE,166,0.0,0.0,20,0.00,,---,0.00,VWS V14.01,2013-03-28 22:29:00,
2013-03-28 18:34:00,71.3,27.7,30.19,ESE,120,0.0,0.9,20,0.00,,---,0.00,VWS V14.01,2013-03-28 22:34:00,
2013-03-28 18:39:00,71.7,27.7,30.19,SE,125,0.0,0.0,19,0.00,,---,0.00,VWS V14.01,2013-03-28 22:39:00,
2013-03-28 18:44:00,71.7,27.7,30.19,SE,125,0.0,0.0,19,0.00,,---,0.00,VWS V14.01,2013-03-28 22:44:00,
2013-03-28 18:49:00,71.9,28.0,30.20,SSW,207,0.0,1.4,19,0.00,,---,0.00,VWS V14.01,2013-03-28 22:49:00,
2013-03-28 18:54:00,71.6,27.6,30.20,West,269,0.0,0.9,19,0.00,,---,0.00,VWS V14.01,2013-03-28 22:54:00,
2013-03-28 18:59:00,70.8,31.4,30.20,East,101,3.2,3.2,23,0.00,,---,0.00,VWS V14.01,2013-03-28 22:59:00,
2013-03-28 19:04:00,70.5,36.7,30.20,East,82,0.0,3.6,29,0.00,,---,0.00,VWS V14.01,2013-03-28 23:04:00,
2013-03-28 19:09:00,68.8,37.3,30.20,ENE,68,0.9,4.0,31,0.00,,---,0.00,VWS V14.01,2013-03-28 23:09:00,
2013-03-28 19:14:00,68.5,38.3,30.21,North,11,2.9,3.4,33,0.00,,---,0.00,VWS V14.01,2013-03-28 23:14:00,
2013-03-28 19:19:00,66.9,38.2,30.21,NE,39,0.0,1.7,35,0.00,,---,0.00,VWS V14.01,2013-03-28 23:19:00,
2013-03-28 19:24:00,66.7,39.3,30.21,ENE,62,3.4,6.3,37,0.00,,---,0.00,VWS V14.01,2013-03-28 23:24:00,
2013-03-28 19:29:00,66.7,40.5,30.21,East,83,0.6,5.5,38,0.00,,---,0.00,VWS V14.01,2013-03-28 23:29:00,
2013-03-28 19:34:00,65.3,39.6,30.22,NNE,28,0.5,1.9,39,0.00,,---,0.00,VWS V14.01,2013-03-28 23:34:00,
2013-03-28 19:39:00,65.6,40.5,30.22,East,96,0.0,1.1,40,0.00,,---,0.00,VWS V14.01,2013-03-28 23:39:00,
2013-03-28 19:44:00,64.4,40.0,30.22,NNE,24,0.0,0.0,41,0.00,,---,0.00,VWS V14.01,2013-03-28 23:44:00,
2013-03-28 19:49:00,64.6,40.8,30.22,SE,124,0.8,2.4,42,0.00,,---,0.00,VWS V14.01,2013-03-28 23:49:00,
2013-03-28 19:54:00,63.7,40.4,30.23,NNE,28,0.0,0.0,42,0.00,,---,0.00,VWS V14.01,2013-03-28 23:54:00,
2013-03-28 19:59:00,63.1,40.4,30.23,ESE,105,2.4,2.9,43,0.00,,---,0.00,VWS V14.01,2013-03-28 23:59:00,
2013-03-28 20:04:00,63.5,41.3,30.23,East,86,0.0,0.0,44,0.00,,---,0.00,VWS V14.01,2013-03-29 00:04:00,
2013-03-28 20:09:00,63.2,41.4,30.23,East,91,0.0,0.8,45,0.00,,---,0.00,VWS V14.01,2013-03-29 00:09:00,
2013-03-28 20:14:00,62.6,41.3,30.23,NNE,27,0.0,0.0,46,0.00,,---,0.00,VWS V14.01,2013-03-29 00:14:00,
2013-03-28 20:19:00,62.5,41.6,30.23,ESE,112,0.0,0.5,46,0.00,,---,0.00,VWS V14.01,2013-03-29 00:19:00,
2013-03-28 20:24:00,61.4,40.7,30.23,NNE,20,0.0,0.0,46,0.00,,---,0.00,VWS V14.01,2013-03-29 00:24:00,
2013-03-28 20:29:00,62.0,41.5,30.23,SE,131,1.6,1.7,47,0.00,,---,0.00,VWS V14.01,2013-03-29 00:29:00,
2013-03-28 20:34:00,62.0,41.8,30.24,ESE,114,1.4,4.2,47,0.00,,---,0.00,VWS V14.01,2013-03-29 00:34:00,
2013-03-28 20:39:00,61.0,41.2,30.24,ENE,76,1.2,6.1,48,0.00,,---,0.00,VWS V14.01,2013-03-29 00:39:00,
2013-03-28 20:44:00,61.1,41.5,30.24,NE,52,0.0,1.0,48,0.00,,---,0.00,VWS V14.01,2013-03-29 00:44:00,
2013-03-28 20:49:00,60.4,41.3,30.24,ESE,103,3.7,5.5,49,0.00,,---,0.00,VWS V14.01,2013-03-29 00:49:00,
2013-03-28 20:54:00,60.5,41.6,30.24,East,79,1.6,5.2,50,0.00,,---,0.00,VWS V14.01,2013-03-29 00:54:00,
2013-03-28 20:59:00,60.8,42.2,30.25,ENE,60,0.6,3.3,50,0.00,,---,0.00,VWS V14.01,2013-03-29 00:59:00,
2013-03-28 21:04:00,59.9,41.5,30.25,NNE,24,0.6,0.6,51,0.00,,---,0.00,VWS V14.01,2013-03-29 01:04:00,
2013-03-28 21:09:00,60.1,42.0,30.25,ENE,72,1.1,2.6,51,0.00,,---,0.00,VWS V14.01,2013-03-29 01:09:00,
2013-03-28 21:14:00,59.5,41.7,30.25,East,98,0.0,0.0,52,0.00,,---,0.00,VWS V14.01,2013-03-29 01:14:00,
2013-03-28 21:19:00,59.8,42.3,30.25,East,97,0.7,2.5,52,0.00,,---,0.00,VWS V14.01,2013-03-29 01:19:00,
2013-03-28 21:24:00,59.3,42.0,30.25,ENE,68,0.9,1.6,53,0.00,,---,0.00,VWS V14.01,2013-03-29 01:24:00,
2013-03-28 21:29:00,59.0,42.0,30.25,ENE,58,0.0,0.0,53,0.00,,---,0.00,VWS V14.01,2013-03-29 01:29:00,
2013-03-28 21:34:00,59.0,42.4,30.26,East,91,0.0,0.0,54,0.00,,---,0.00,VWS V14.01,2013-03-29 01:34:00,
2013-03-28 21:39:00,58.2,41.8,30.26,East,91,0.0,0.0,54,0.00,,---,0.00,VWS V14.01,2013-03-29 01:39:00,
2013-03-28 21:44:00,57.9,41.8,30.27,East,91,0.0,0.0,55,0.00,,---,0.00,VWS V14.01,2013-03-29 01:44:00,
2013-03-28 21:49:00,58.6,42.6,30.26,SSE,160,0.0,0.0,55,0.00,,---,0.00,VWS V14.01,2013-03-29 01:49:00,
2013-03-28 21:54:00,57.9,42.1,30.26,SSE,160,0.0,0.0,56,0.00,,---,0.00,VWS V14.01,2013-03-29 01:54:00,
2013-03-28 21:59:00,57.2,41.7,30.27,SE,136,0.0,0.0,56,0.00,,---,0.00,VWS V14.01,2013-03-29 01:59:00,
2013-03-28 22:04:00,57.2,42.0,30.27,East,98,0.0,0.0,57,0.00,,---,0.00,VWS V14.01,2013-03-29 02:04:00,
2013-03-28 22:09:00,57.3,42.3,30.27,ESE,105,0.0,0.0,57,0.00,,---,0.00,VWS V14.01,2013-03-29 02:09:00,
2013-03-28 22:14:00,57.4,42.7,30.27,ESE,105,0.0,0.0,58,0.00,,---,0.00,VWS V14.01,2013-03-29 02:14:00,
2013-03-28 22:19:00,56.6,42.4,30.28,ESE,105,0.0,0.0,59,0.00,,---,0.00,VWS V14.01,2013-03-29 02:19:00,
2013-03-28 22:24:00,56.1,42.1,30.28,ESE,105,0.0,0.0,59,0.00,,---,0.00,VWS V14.01,2013-03-29 02:24:00,
2013-03-28 22:29:00,56.6,42.9,30.28,ESE,105,0.0,0.0,60,0.00,,---,0.00,VWS V14.01,2013-03-29 02:29:00,
2013-03-28 22:34:00,56.1,42.5,30.28,ESE,105,0.0,0.0,60,0.00,,---,0.00,VWS V14.01,2013-03-29 02:34:00,
2013-03-28 22:39:00,56.2,42.9,30.28,ESE,105,0.0,0.0,61,0.00,,---,0.00,VWS V14.01,2013-03-29 02:39:00,
2013-03-28 22:44:00,55.4,42.4,30.28,ESE,105,0.0,0.0,62,0.00,,---,0.00,VWS V14.01,2013-03-29 02:44:00,
2013-03-28 22:49:00,55.3,42.4,30.28,ESE,105,0.0,0.0,62,0.00,,---,0.00,VWS V14.01,2013-03-29 02:49:00,
2013-03-28 22:54:00,55.7,43.0,30.28,ESE,105,0.0,0.0,62,0.00,,---,0.00,VWS V14.01,2013-03-29 02:54:00,
2013-03-28 22:59:00,54.7,42.1,30.28,ESE,105,0.0,0.0,62,0.00,,---,0.00,VWS V14.01,2013-03-29 02:59:00,
2013-03-28 23:04:00,55.1,42.7,30.28,ESE,105,0.0,0.0,63,0.00,,---,0.00,VWS V14.01,2013-03-29 03:04:00,
2013-03-28 23:09:00,55.2,42.8,30.28,ESE,105,0.0,0.0,63,0.00,,---,0.00,VWS V14.01,2013-03-29 03:09:00,
2013-03-28 23:14:00,54.4,42.2,30.28,ESE,105,0.0,0.0,63,0.00,,---,0.00,VWS V14.01,2013-03-29 03:14:00,
2013-03-28 23:19:00,54.5,42.8,30.29,ESE,105,0.0,0.0,64,0.00,,---,0.00,VWS V14.01,2013-03-29 03:19:00,
2013-03-28 23:24:00,54.4,43.1,30.29,ESE,105,0.0,0.0,66,0.00,,---,0.00,VWS V14.01,2013-03-29 03:24:00,
2013-03-28 23:29:00,54.4,43.4,30.29,ESE,105,0.0,0.0,66,0.00,,---,0.00,VWS V14.01,2013-03-29 03:29:00,
2013-03-28 23:34:00,54.5,43.7,30.29,ESE,105,0.0,0.0,67,0.00,,---,0.00,VWS V14.01,2013-03-29 03:34:00,
2013-03-28 23:39:00,54.4,43.5,30.29,ESE,105,0.0,0.0,66,0.00,,---,0.00,VWS V14.01,2013-03-29 03:39:00,
2013-03-28 23:44:00,54.0,43.2,30.29,ESE,105,0.0,0.0,67,0.00,,---,0.00,VWS V14.01,2013-03-29 03:44:00,
2013-03-28 23:49:00,54.2,43.6,30.29,ESE,105,0.0,0.0,67,0.00,,---,0.00,VWS V14.01,2013-03-29 03:49:00,
2013-03-28 23:54:00,54.2,43.6,30.29,ESE,105,0.0,0.0,67,0.00,,---,0.00,VWS V14.01,2013-03-29 03:54:00,